Latest Weather Observations for Roseworthy

IDS60901

Issued at 10:11 pm CST Saturday 29 August 2015 (issued every 10 minutes, with the page automatically refreshed every 10 minutes)

About weather observations | Map of Adelaide area stations | Latest observations for Adelaide area | Other Formats
Station Details ID: 023122 Name: ROSEWORTHY AWS Lat: -34.51 Lon: 138.68 Height: 65.0 m
Data from the previous 72 hours. | See also: Recent months at Roseworthy
Date/Time
CST
Tmp

°C
App
Tmp
°C
Dew
Point
°C
Rel
Hum
%
Delta-T

°C
Wind Press
QNH
hPa
Press
MSL
hPa
Rain
since
9 am
mm
Dir
 
Spd
km/h
Gust
km/h
Spd
kts
Gust
kts
29/10:00pm 1.9 -1.7 0.4 90 0.6 E 9 9 5 5 1027.3 - 0.0
29/09:30pm 2.4 -1.2 0.6 88 0.7 E 9 11 5 6 1027.1 - 0.0
29/09:00pm 3.4 -0.1 1.3 86 0.8 E 9 11 5 6 1027.2 1027.4 0.0
29/08:30pm 5.4 2.1 2.6 82 1.1 ESE 9 11 5 6 1026.8 - 0.0
29/08:00pm 6.8 3.4 1.9 71 2.0 ESE 9 11 5 6 1026.6 - 0.0
29/07:30pm 8.2 5.4 5.3 82 1.3 E 9 9 5 5 1026.5 - 0.0
29/07:00pm 9.5 7.3 6.4 81 1.4 ENE 7 9 4 5 1026.5 - 0.0
29/06:30pm 10.4 8.2 6.0 74 2.0 E 7 9 4 5 1026.3 - 0.0
29/06:00pm 11.1 8.9 6.3 72 2.2 E 7 9 4 5 1026.1 1026.2 0.0
29/05:30pm 11.5 9.4 6.6 72 2.3 E 7 11 4 6 1025.9 - 0.0
29/05:00pm 12.0 9.0 6.1 67 2.8 SE 11 15 6 8 1025.7 - 0.0
29/04:30pm 13.2 10.9 5.9 61 3.5 SE 7 11 4 6 1025.5 - 0.0
29/04:00pm 13.9 11.4 6.5 61 3.6 E 9 15 5 8 1025.5 - 0.0
29/03:30pm 13.2 9.9 6.3 63 3.3 E 13 17 7 9 1025.6 - 0.0
29/03:00pm 13.6 10.9 7.4 66 3.0 E 11 15 6 8 1025.9 1026.0 0.0
29/02:30pm 13.4 11.0 7.0 65 3.1 E 9 19 5 10 1026.1 - 0.0
29/02:00pm 13.2 10.0 7.0 66 3.0 E 13 20 7 11 1026.3 - 0.0
29/01:30pm 12.7 9.0 6.5 66 3.0 ESE 15 19 8 10 1026.3 - 0.0
29/01:00pm 12.9 10.0 6.7 66 3.0 SE 11 13 6 7 1026.6 - 0.0
29/12:30pm 12.3 9.0 6.4 67 2.8 SE 13 19 7 10 1027.2 - 0.0
29/12:00pm 12.1 9.3 6.8 70 2.5 SE 11 15 6 8 1027.7 1027.9 0.0
29/11:30am 12.0 8.4 6.7 70 2.5 SSE 15 22 8 12 1027.9 - 0.0
29/11:00am 11.7 8.2 7.2 74 2.2 S 15 19 8 10 1028.1 - 0.0
29/10:30am 12.9 11.0 6.9 67 2.9 E 6 9 3 5 1028.1 - 0.0
29/10:00am 13.1 11.3 7.8 70 2.6 E 7 11 4 6 1028.2 - 0.0
29/09:30am 11.7 9.7 7.0 73 2.3 ENE 7 11 4 6 1028.3 - 0.0
29/09:00am 10.5 8.6 6.8 78 1.7 NE 6 11 3 6 1028.3 1028.5 0.0
29/08:30am 7.9 4.9 5.9 87 0.9 NE 11 15 6 8 1028.2 - 0.0
29/08:00am 5.4 2.8 4.4 93 0.4 NE 7 9 4 5 1028.1 - 0.0
29/07:30am 2.3 -0.8 1.3 93 0.4 NNE 7 9 4 5 1027.7 - 0.0
29/07:00am -0.2 -3.7 -1.2 93 0.3 ENE 7 11 4 6 1027.4 - 0.0
29/06:30am -0.7 -4.3 -1.8 92 0.3 ENE 7 7 4 4 1027.2 - 0.0
29/06:00am -0.7 -3.3 -1.8 92 0.3 E 2 7 1 4 1027.0 1027.2 0.0
29/05:30am -0.1 -3.6 -1.2 92 0.4 ENE 7 11 4 6 1026.8 - 0.0
29/05:00am 0.1 -4.1 -1.0 92 0.4 ENE 11 11 6 6 1026.8 - 0.0
29/04:30am 0.3 -3.9 -1.0 91 0.5 ENE 11 11 6 6 1026.8 - 0.0
29/04:00am 1.2 -3.3 0.0 92 0.4 ENE 13 15 7 8 1026.9 - 0.0
29/03:30am 1.1 -2.6 -0.1 92 0.4 E 9 11 5 6 1027.1 - 0.0
29/03:00am 1.2 -2.5 -0.1 91 0.5 ENE 9 11 5 6 1027.3 1027.5 0.0
29/02:30am 1.5 -1.8 0.2 91 0.5 E 7 9 4 5 1027.5 - 0.0
29/02:00am 1.8 -0.1 0.3 90 0.6 CALM 0 0 0 0 1027.8 - 0.0
29/01:30am 1.9 0.0 0.4 90 0.6 CALM 0 0 0 0 1027.9 - 0.0
29/01:00am 2.3 0.4 0.7 89 0.6 CALM 0 2 0 1 1028.1 - 0.0
29/12:30am 3.1 0.0 1.3 88 0.7 ENE 7 9 4 5 1028.0 - 0.0
29/12:00am 5.3 2.5 3.3 87 0.8 ENE 7 7 4 4 1027.8 1028.0 0.0
 
Date/Time
CST
Tmp

°C
App
Tmp
°C
Dew
Point
°C
Rel
Hum
%
Delta-T

°C
Wind Press
QNH
hPa
Press
MSL
hPa
Rain
since
9 am
mm
Dir
 
Spd
km/h
Gust
km/h
Spd
kts
Gust
kts
28/11:30pm 6.5 3.9 4.3 86 0.9 ENE 7 9 4 5 1027.9 - 0.0
28/11:00pm 7.3 4.9 5.1 86 1.0 E 7 9 4 5 1028.1 - 0.0
28/10:30pm 7.3 4.9 5.4 88 0.8 E 7 11 4 6 1028.3 - 0.0
28/10:00pm 7.4 6.4 5.4 87 0.9 CALM 0 0 0 0 1028.5 - 0.0
28/09:30pm 8.4 6.2 5.5 82 1.3 ESE 6 7 3 4 1028.4 - 0.0
28/09:00pm 8.8 6.5 5.5 80 1.5 ESE 7 11 4 6 1028.2 1028.4 0.0
28/08:30pm 8.6 6.4 6.2 85 1.1 SE 7 9 4 5 1028.1 - 0.0
28/08:00pm 7.8 5.5 5.6 86 1.0 E 7 9 4 5 1027.7 - 0.0
28/07:30pm 8.5 5.8 5.4 81 1.4 ESE 9 11 5 6 1027.4 - 0.0
28/07:00pm 9.3 6.3 6.0 80 1.5 SE 11 13 6 7 1027.2 - 0.0
28/06:30pm 8.6 6.3 5.7 82 1.3 SSE 7 9 4 5 1027.1 - 0.0
28/06:00pm 9.8 7.6 6.0 77 1.7 SW 7 11 4 6 1026.9 1027.1 0.0
28/05:30pm 11.3 8.4 6.4 72 2.3 SW 11 15 6 8 1026.7 - 0.0
28/05:00pm 11.9 9.0 6.6 70 2.5 SW 11 17 6 9 1026.7 - 0.0
28/04:30pm 12.0 9.1 6.7 70 2.5 SW 11 13 6 7 1026.8 - 0.0
28/04:00pm 12.2 9.1 7.3 72 2.4 SW 13 17 7 9 1026.7 - 0.0
28/03:30pm 12.3 9.3 7.8 74 2.2 SW 13 17 7 9 1026.8 - 0.0
28/03:00pm 12.1 10.0 8.2 77 1.9 W 9 11 5 6 1027.0 1027.2 0.0
28/02:30pm 12.2 9.7 8.1 76 2.0 W 11 15 6 8 1027.4 - 0.0
28/02:00pm 12.2 10.1 8.1 76 2.0 SW 9 13 5 7 1027.4 - 0.0
28/01:30pm 12.3 10.1 8.0 75 2.1 SW 9 13 5 7 1027.5 - 0.0
28/01:00pm 11.9 9.1 7.0 72 2.4 SW 11 13 6 7 1027.9 - 0.0
28/12:30pm 12.2 10.0 7.7 74 2.2 SSW 9 11 5 6 1028.3 - 0.0
28/12:00pm 11.9 9.5 7.2 73 2.3 S 9 13 5 7 1028.7 1028.9 0.0
28/11:30am 12.2 10.2 6.9 70 2.5 SE 7 11 4 6 1029.0 - 0.0
28/11:00am 12.3 9.9 7.2 71 2.5 ESE 9 13 5 7 1029.3 - 0.0
28/10:30am 12.3 10.1 7.8 74 2.2 ESE 9 11 5 6 1029.4 - 0.0
28/10:00am 11.7 9.4 7.6 76 2.0 ENE 9 11 5 6 1029.5 - 0.0
28/09:30am 10.9 9.5 7.2 78 1.8 NE 4 9 2 5 1029.7 - 0.0
28/09:00am 10.2 9.5 7.1 81 1.5 CALM 0 0 0 0 1029.7 1029.9 0.2
28/08:30am 9.7 9.1 7.6 87 1.0 CALM 0 0 0 0 1029.5 - 0.2
28/08:00am 8.9 8.3 7.2 89 0.8 CALM 0 6 0 3 1029.3 - 0.2
28/07:30am 8.4 6.4 6.9 90 0.7 E 7 7 4 4 1029.0 - 0.2
28/07:00am 7.8 5.3 6.4 91 0.6 E 9 11 5 6 1028.6 - 0.2
28/06:30am 7.4 4.8 6.2 92 0.5 ESE 9 11 5 6 1028.3 - 0.2
28/06:00am 7.3 5.1 6.2 93 0.5 ESE 7 7 4 4 1028.1 1028.3 0.2
28/05:30am 7.2 4.6 6.1 93 0.5 ESE 9 13 5 7 1028.0 - 0.2
28/05:00am 7.0 6.0 5.8 92 0.5 CALM 0 0 0 0 1027.9 - 0.2
28/04:30am 7.1 4.9 6.0 93 0.5 NNE 7 9 4 5 1027.8 - 0.2
28/04:00am 7.0 4.9 5.9 93 0.5 NNE 6 7 3 4 1027.7 - 0.2
28/03:30am 6.8 4.1 5.7 93 0.5 N 9 9 5 5 1027.6 - 0.2
28/03:00am 6.6 3.9 5.6 93 0.4 N 9 11 5 6 1027.7 1027.9 0.2
28/02:30am 6.1 3.7 5.1 93 0.4 NNE 7 9 4 5 1027.9 - 0.2
28/02:00am 5.7 3.2 4.8 94 0.4 N 7 11 4 6 1027.7 - 0.2
28/01:30am 4.8 2.1 3.8 93 0.4 NNE 7 11 4 6 1027.8 - 0.2
28/01:00am 3.2 0.2 2.2 93 0.4 N 7 9 4 5 1028.0 - 0.2
28/12:30am 1.2 -2.9 0.0 92 0.4 NNE 11 13 6 7 1027.8 - 0.2
28/12:00am 0.7 -2.7 -0.6 91 0.5 NE 7 11 4 6 1027.9 1028.1 0.2
 
Date/Time
CST
Tmp

°C
App
Tmp
°C
Dew
Point
°C
Rel
Hum
%
Delta-T

°C
Wind Press
QNH
hPa
Press
MSL
hPa
Rain
since
9 am
mm
Dir
 
Spd
km/h
Gust
km/h
Spd
kts
Gust
kts
27/11:30pm 1.0 -1.0 -0.3 91 0.5 CALM 0 0 0 0 1027.7 - 0.2
27/11:00pm 1.8 -1.2 0.5 91 0.5 NE 6 6 3 3 1027.8 - 0.2
27/10:30pm 1.7 -0.6 0.4 91 0.5 E 2 6 1 3 1028.0 - 0.2
27/10:00pm 2.0 -1.0 0.5 90 0.6 ENE 6 7 3 4 1028.0 - 0.2
27/09:30pm 2.4 0.5 0.8 89 0.6 CALM 0 0 0 0 1028.0 - 0.2
27/09:00pm 3.1 1.3 1.2 87 0.7 CALM 0 0 0 0 1027.9 1028.1 0.2
27/08:30pm 4.6 2.6 2.5 86 0.8 SSE 2 6 1 3 1027.9 - 0.2
27/08:00pm 6.8 4.4 5.1 89 0.7 S 7 9 4 5 1027.6 - 0.2
27/07:30pm 6.8 4.3 4.8 87 0.9 S 7 9 4 5 1027.3 - 0.2
27/07:00pm 8.1 5.5 6.1 87 0.9 SW 9 13 5 7 1026.9 - 0.2
27/06:30pm 9.0 6.4 6.1 82 1.3 SW 9 11 5 6 1026.5 - 0.2
27/06:00pm 10.1 7.7 7.0 81 1.5 S 9 11 5 6 1026.2 1026.3 0.2
27/05:30pm 11.1 8.0 7.2 77 1.9 SSW 13 15 7 8 1025.9 - 0.2
27/05:00pm 11.8 8.3 7.1 73 2.3 SSW 15 20 8 11 1025.5 - 0.2
27/04:30pm 12.2 7.7 6.9 70 2.5 SSW 20 28 11 15 1025.3 - 0.2
27/04:00pm 12.6 7.7 7.1 69 2.7 SSW 22 30 12 16 1025.1 - 0.2
27/03:30pm 12.8 8.3 6.8 67 2.9 SSW 20 32 11 17 1024.9 - 0.2
27/03:00pm 13.3 8.9 7.5 68 2.8 WSW 20 28 11 15 1024.7 1024.8 0.2
27/02:30pm 12.6 8.2 7.3 70 2.6 SSW 20 28 11 15 1024.8 - 0.2
27/02:00pm 13.7 8.9 7.2 65 3.2 WSW 22 30 12 16 1024.7 - 0.2
27/01:30pm 13.2 8.8 7.2 67 2.9 SW 20 30 11 16 1024.9 - 0.2
27/01:00pm 12.9 8.3 6.5 65 3.1 SW 20 30 11 16 1025.2 - 0.2
27/12:30pm 14.2 9.9 6.8 61 3.6 WSW 19 24 10 13 1025.4 - 0.2
27/12:00pm 13.4 9.0 6.7 64 3.2 SW 19 24 10 13 1025.7 1025.8 0.0
27/11:30am 13.4 10.4 9.1 75 2.2 SW 15 22 8 12 1026.0 - 0.0
27/11:00am 12.5 8.8 7.8 73 2.3 SW 17 22 9 12 1026.1 - 0.0
27/10:30am 11.8 9.2 7.7 76 2.0 W 11 17 6 9 1026.1 - 0.0
27/10:00am 11.1 8.9 8.0 81 1.5 W 9 13 5 7 1026.2 - 0.0
27/09:30am 10.9 9.2 8.3 84 1.3 W 7 11 4 6 1026.2 - 0.0
27/09:00am 9.8 8.1 7.6 86 1.0 NNW 6 9 3 5 1026.0 1026.1 0.0
27/08:30am 8.4 6.5 6.7 89 0.8 N 6 9 3 5 1025.8 - 0.0
27/08:00am 7.4 6.6 6.3 93 0.5 CALM 0 6 0 3 1025.7 - 0.0
27/07:30am 5.1 2.7 4.1 93 0.4 NE 6 9 3 5 1025.3 - 0.0
27/07:00am 4.8 1.7 3.8 93 0.4 NNE 9 11 5 6 1024.9 - 0.0
27/06:30am 5.2 2.2 4.2 93 0.4 N 9 13 5 7 1024.5 - 0.0
27/06:00am 5.6 2.7 4.6 93 0.4 N 9 11 5 6 1024.2 1024.3 0.0
27/05:30am 5.1 2.5 4.1 93 0.4 N 7 9 4 5 1024.0 - 0.0
27/05:00am 4.7 0.5 3.7 93 0.4 N 15 15 8 8 1023.5 - 0.0
27/04:30am 3.2 -0.9 2.2 93 0.4 NNE 13 15 7 8 1023.4 - 0.0
27/04:00am 1.3 -3.5 0.1 92 0.4 NNE 15 15 8 8 1023.3 - 0.0
27/03:30am 0.7 -3.8 -0.4 92 0.4 NE 13 15 7 8 1023.3 - 0.0
27/03:00am 0.6 -2.8 -0.5 92 0.4 NE 7 9 4 5 1023.5 1023.7 0.0
27/02:30am 1.0 -3.1 -0.1 92 0.4 NNE 11 13 6 7 1023.4 - 0.0
27/02:00am 1.5 -2.5 0.3 92 0.4 NE 11 13 6 7 1023.4 - 0.0
27/01:30am 1.6 -2.4 0.4 92 0.4 NE 11 13 6 7 1023.7 - 0.0
27/01:00am 1.1 -3.0 -0.1 92 0.4 N 11 13 6 7 1024.0 - 0.0
27/12:30am 1.0 -2.7 -0.3 91 0.5 NE 9 9 5 5 1023.9 - 0.0
27/12:00am 1.4 -1.9 0.1 91 0.5 NE 7 9 4 5 1023.9 1024.0 0.0
 
Date/Time
CST
Tmp

°C
App
Tmp
°C
Dew
Point
°C
Rel
Hum
%
Delta-T

°C
Wind Press
QNH
hPa
Press
MSL
hPa
Rain
since
9 am
mm
Dir
 
Spd
km/h
Gust
km/h
Spd
kts
Gust
kts
26/11:30pm 2.0 0.1 0.7 91 0.5 CALM 0 0 0 0 1024.2 - 0.0
26/11:00pm 2.5 -1.0 1.2 91 0.5 ENE 9 9 5 5 1024.2 - 0.0
26/10:30pm 2.5 -1.4 1.2 91 0.5 NE 11 11 6 6 1024.4 - 0.0

Latest Capital City Observations: Canberra | Sydney | Melbourne | Brisbane | Adelaide | Perth | Hobart | Darwin

Other Formats:

Comma delimited format used in spreadsheet applications
http://www.bom.gov.au/fwo/IDS60901/IDS60901.95671.axf

JavaScript Object Notation format (JSON) in row-major order
http://www.bom.gov.au/fwo/IDS60901/IDS60901.95671.json